Home > Products > Valid Products > TAF

000
FTUS43 KABR 020500
TAFATY
TAF
KATY 020529Z 0206/0306 14004KT P6SM BKN200=



000
FTUS43 KABR 020500
TAFMBG
TAF
KMBG 020529Z 0206/0306 20005G27KT P6SM -TSRA FEW060CB SCT080 OVC100
     FM020800 12008KT P6SM VCSH OVC200
     FM021500 13011KT P6SM SCT200=



000
FTUS43 KABR 020500
TAFPIR
TAF
KPIR 020529Z 0206/0306 12006KT P6SM BKN200=



000
FTUS43 KABR 020500
TAFABR
TAF
KABR 020529Z 0206/0306 12004KT P6SM SKC
     FM020800 VRB05KT P6SM -SHRA VCTS SCT070CB OVC100
     FM021200 VRB05KT P6SM BKN200=



000
FTUS43 KABR 020400 AAC
TAFMBG
TAF AMD
KMBG 020426Z 0204/0224 09015G25KT P6SM VCTS FEW070CB BKN110
      TEMPO 0204/0206 3SM -TSRA
     FM020600 12008KT P6SM OVC250
     FM021500 13011KT P6SM SCT200
      AMD NOT SKED=



000
FTUS43 KABR 020400 AAB
TAFMBG
TAF AMD
KMBG 020407Z 0204/0224 04015KT P6SM VCTS FEW070CB BKN110
     FM020600 12008KT P6SM OVC250
     FM021500 13011KT P6SM SCT200
      AMD NOT SKED=



000
FTUS43 KABR 020400 AAB
TAFMBG
TAF AMD
KMBG 020407Z 0204/0224 04015KT P6SM VCTS FEW070CB BKN110
     FM020600 12008KT P6SM OVC250
     FM021500 13011KT P6SM SCT200
      AMD NOT SKED=



000
FTUS43 KABR 020400 AAE
TAFPIR
TAF AMD
KPIR 020406Z 0204/0224 20008KT P6SM SCT250
     FM020600 12008KT P6SM BKN250=



000
FTUS43 KABR 020400 AAE
TAFPIR
TAF AMD
KPIR 020406Z 0204/0224 20008KT P6SM SCT250
     FM020600 12008KT P6SM BKN250=



000
FTUS43 KABR 020300 AAA
TAFMBG
TAF AMD
KMBG 020337Z 0204/0224 14010KT P6SM VCTS FEW070CB SCT200
     FM020600 12008KT P6SM OVC250
     FM021500 13011KT P6SM SCT200
      AMD NOT SKED=



000
FTUS43 KABR 020300 AAD
TAFPIR
TAF AMD
KPIR 020317Z 0203/0224 14025G35KT P6SM -RA SCT070 SCT250
     FM020600 12008KT P6SM BKN250=



000
FTUS43 KABR 020200 AAC
TAFPIR
TAF AMD
KPIR 020211Z 0202/0224 VRB05KT P6SM VCTS SCT070CB SCT250
      TEMPO 0202/0203 -TSRA
     FM020600 12008KT P6SM BKN250=



000
FTUS43 KABR 020200 AAB
TAFPIR
TAF AMD
KPIR 020206Z 0202/0224 VRB05KT P6SM VCTS SCT070CB SCT250
     FM020600 12008KT P6SM BKN250=



000
FTUS43 KABR 020100 AAA
TAFPIR
TAF AMD
KPIR 020102Z 0201/0224 11015KT P6SM VCTS SCT060CB SCT250
      TEMPO 0201/0203 -TSRA
     FM020600 12008KT P6SM BKN250=



000
FTUS43 KABR 012300
TAFMBG
TAF
KMBG 012331Z 0200/0224 14010KT P6SM FEW070 SCT200
     FM020600 12008KT P6SM OVC250
     FM021500 13011KT P6SM SCT200=



000
FTUS43 KABR 012300
TAFATY
TAF
KATY 012331Z 0200/0224 VRB05KT P6SM BKN060=



000
FTUS43 KABR 012300
TAFPIR
TAF
KPIR 012331Z 0200/0224 11015KT P6SM VCTS SCT060CB SCT250
     FM020600 12008KT P6SM BKN250=



000
FTUS43 KABR 012300
TAFABR
TAF
KABR 012331Z 0200/0224 VRB05KT P6SM SKC=



000
FTUS43 KABR 012000 AAA
TAFMBG
TAF AMD
KMBG 012045Z 0121/0218 15012KT P6SM VCSH FEW080
     FM020000 10012KT P6SM VCTS SCT060CB SCT250
     FM020600 12008KT P6SM OVC250=



000
FTUS43 KABR 011700
TAFABR
TAF
KABR 011720Z 0118/0218 VRB05KT P6SM SKC=



000
FTUS43 KABR 011700
TAFMBG
TAF
KMBG 011720Z 0118/0218 15012KT P6SM SKC
     FM020000 10012KT P6SM VCTS SCT060CB SCT250
     FM020600 12008KT P6SM OVC250=



000
FTUS43 KABR 011700
TAFATY
TAF
KATY 011720Z 0118/0218 VRB03KT P6SM SKC=



000
FTUS43 KABR 011700
TAFPIR
TAF
KPIR 011720Z 0118/0218 12012KT P6SM SKC
     FM020000 11008KT P6SM VCTS SCT060CB SCT250
     FM020600 13007KT P6SM BKN250=



000
FTUS43 KABR 011600 AAA
TAFMBG
TAF AMD
KMBG 011609Z 0116/0212 15012KT P6SM SKC
     FM020000 10012KT P6SM VCTS SCT060CB SCT250
     FM020600 12008KT P6SM OVC250=



000
FTUS43 KABR 011100
TAFATY
TAF
KATY 011120Z 0112/0212 VRB06KT P6SM FEW100=



000
FTUS43 KABR 011100
TAFPIR
TAF
KPIR 011120Z 0112/0212 10009KT P6SM FEW110
     FM020000 11008KT P6SM VCTS SCT060CB SCT250
     FM020600 13007KT P6SM BKN250=



000
FTUS43 KABR 011100
TAFABR
TAF
KABR 011120Z 0112/0212 VRB06KT P6SM FEW100
     FM011500 10004KT P6SM FEW250=



000
FTUS43 KABR 011100
TAFMBG
TAF
KMBG 011120Z 0112/0212 11009KT P6SM FEW100
     FM020000 10010KT P6SM VCTS SCT060CB SCT250
     FM020600 12008KT P6SM OVC250=



000
FTUS43 KABR 011000 AAA
TAFABR
TAF AMD
KABR 011018Z 0110/0206 VRB06KT P6SM SKC
      TEMPO 0110/0112 3/4SM BR=



000
FTUS43 KABR 010500
TAFMBG
TAF
KMBG 010531Z 0106/0206 13007KT P6SM SKC
     FM011500 13011KT P6SM SCT200=



000
FTUS43 KABR 010500
TAFPIR
TAF
KPIR 010531Z 0106/0206 13008KT P6SM SKC
     FM011500 13011KT P6SM FEW050=



000
FTUS43 KABR 010500
TAFATY
TAF
KATY 010531Z 0106/0206 VRB06KT P6SM SKC=



000
FTUS43 KABR 010500
TAFABR
TAF
KABR 010531Z 0106/0206 VRB06KT P6SM SKC=



000
FTUS43 KABR 312300
TAFATY
TAF
KATY 312328Z 0100/0124 VRB05KT P6SM FEW070=



000
FTUS43 KABR 312300
TAFABR
TAF
KABR 312328Z 0100/0124 VRB05KT P6SM FEW250=



000
FTUS43 KABR 312300
TAFMBG
TAF
KMBG 312328Z 0100/0124 35007KT P6SM SCT250
     FM010200 VRB05KT P6SM BKN250
     FM011700 13011KT P6SM SCT200=



000
FTUS43 KABR 312300
TAFPIR
TAF
KPIR 312328Z 0100/0124 35011KT P6SM SCT250
     FM011500 15012KT P6SM FEW050=



000
FTUS43 KABR 311700
TAFATY
TAF
KATY 311720Z 3118/0118 VRB04KT P6SM FEW050
     FM010200 VRB03KT P6SM BKN250=



000
FTUS43 KABR 311700
TAFABR
TAF
KABR 311720Z 3118/0118 VRB05KT P6SM FEW050
     FM010200 VRB03KT P6SM BKN250=



000
FTUS43 KABR 311700
TAFMBG
TAF
KMBG 311720Z 3118/0118 VRB04KT P6SM FEW050
     FM010200 VRB05KT P6SM BKN250=



000
FTUS43 KABR 311700
TAFPIR
TAF
KPIR 311720Z 3118/0118 VRB03KT P6SM FEW050
     FM010000 VRB05KT P6SM BKN250
     FM011500 15012KT P6SM FEW050=



000
FTUS43 KABR 311100
TAFABR
TAF
KABR 311121Z 3112/0112 VRB05KT P6SM FEW070 BKN150
     FM010200 VRB03KT P6SM BKN250=



000
FTUS43 KABR 311100
TAFMBG
TAF
KMBG 311121Z 3112/0112 07009KT P6SM SCT150
     FM010000 VRB05KT P6SM BKN250=



000
FTUS43 KABR 311100
TAFATY
TAF
KATY 311121Z 3112/0112 VRB03KT P6SM SKC
     FM311500 34007KT P6SM FEW070 BKN150
     FM010200 VRB03KT P6SM BKN250=



000
FTUS43 KABR 311100
TAFPIR
TAF
KPIR 311121Z 3112/0112 VRB05KT P6SM SCT150
     FM010000 VRB05KT P6SM BKN250=



000
FTUS43 KABR 310500
TAFPIR
TAF
KPIR 310524Z 3106/0106 VRB04KT P6SM FEW090=



000
FTUS43 KABR 310500
TAFATY
TAF
KATY 310524Z 3106/0106 VRB03KT P6SM SKC=



000
FTUS43 KABR 310500
TAFMBG
TAF
KMBG 310524Z 3106/0106 09008KT P6SM SCT100
     FM310700 VRB04KT P6SM SCT100=



000
FTUS43 KABR 310500
TAFABR
TAF
KABR 310524Z 3106/0106 VRB03KT P6SM FEW070 SCT110=



000
FTUS43 KABR 310400 AAA
TAFMBG
TAF AMD
KMBG 310434Z 3105/3124 09008KT P6SM SCT100
      AMD NOT SKED=



000
FTUS43 KABR 302300
TAFABR
TAF
KABR 302324Z 3100/3124 05010KT P6SM SKC
     FM310200 VRB03KT P6SM SKC=



000
FTUS43 KABR 302300
TAFPIR
TAF
KPIR 302324Z 3100/3124 VRB04KT P6SM SCT090=



000
FTUS43 KABR 302300
TAFATY
TAF
KATY 302324Z 3100/3124 32007KT P6SM SKC
     FM310200 VRB03KT P6SM SKC=



000
FTUS43 KABR 302300
TAFMBG
TAF
KMBG 302324Z 3100/3124 05006KT P6SM SKC
     FM310200 06005KT P6SM SKC=



000
FTUS43 KABR 301700
TAFATY
TAF
KATY 301720Z 3018/3118 32006KT P6SM SKC
     FM310200 VRB03KT P6SM SKC=



000
FTUS43 KABR 301700
TAFPIR
TAF
KPIR 301720Z 3018/3118 14005KT P6SM OVC080
     FM310600 09004KT P6SM SKC
     FM311500 36003KT P6SM SKC=



000
FTUS43 KABR 301700
TAFMBG
TAF
KMBG 301720Z 3018/3118 VRB05KT P6SM SCT090
     FM310200 06005KT P6SM SKC=



000
FTUS43 KABR 301700
TAFABR
TAF
KABR 301720Z 3018/3118 36004KT P6SM SKC
     FM310200 VRB03KT P6SM SKC=



000
FTUS43 KABR 301100
TAFPIR
TAF
KPIR 301124Z 3012/3112 VRB05KT P6SM BKN120
     FM301500 VRB05KT P6SM SKC=



000
FTUS43 KABR 301100
TAFMBG
TAF
KMBG 301124Z 3012/3112 09007KT P6SM BKN080
     FM301400 VRB05KT P6SM SKC=



000
FTUS43 KABR 301100
TAFATY
TAF
KATY 301124Z 3012/3112 VRB05KT P6SM SCT050
     FM310200 VRB03KT P6SM SKC=



000
FTUS43 KABR 301100
TAFABR
TAF
KABR 301124Z 3012/3112 VRB05KT P6SM SCT050
     FM310200 VRB03KT P6SM SKC=



000
FTUS43 KABR 301000 AAA
TAFPIR
TAF AMD
KPIR 301004Z 3010/3106 VRB05KT P6SM BKN200
      TEMPO 3010/3011 -RA OVC080
     FM301700 12011KT P6SM SKC
     FM310100 VRB04KT P6SM SKC=



    US Dept of Commerce
    National Oceanic and Atmospheric Administration
    National Weather Service
    1325 East West Highway
    Silver Spring, MD 20910
    Page Author: NWS Internet Services Team
Disclaimer
Information Quality
Credits
Glossary
Privacy Policy
Freedom of Information Act (FOIA)
About Us
Career Opportunities